Frye, Maine
Current Conditions -  °F | °C
As of 5:08 AM on Sunday 21 Dec 2014 (Local Time) from KBML Reporting Station
Overcast Overcast  
Wind Chill:   Ceiling: 500
Heat Index:   Visibility: 7mi
Dew Point:   Wind: 0mph
Humidity: 84%   Direction: NA
Pressure: 30.29"   Gusts: NA
Location:  44.7286°N, 70.6272°W
Report Text: KBML 211008Z AUTO 00000KT 7SM OVC005 M13/M15 A3029 RMK AO2 CIG 003V007 T11281150
Loading
Personal Weather Stations






























Interactive Weather Map New forecast layout! Learn more

10-Day Weather Forecast

Advertisements
Track Severe Weather on mobile